createdAt,value
2022-10-18T05:11:42.911Z,101950.78
2022-10-18T05:34:48.063Z,101945.53
2022-10-18T05:38:09.301Z,101952.63
2022-10-18T05:59:04.553Z,101952.59
2022-10-18T06:11:29.105Z,101967.63
2022-10-18T06:43:54.449Z,101990.19
2022-10-18T06:46:44.363Z,101980.44
2022-10-18T06:49:18.955Z,101976.97
2022-10-18T06:51:46.906Z,101985.94
2022-10-18T06:54:19.143Z,101977.34
2022-10-18T06:56:52.917Z,101981.31
2022-10-18T07:03:53.831Z,101973.31
2022-10-18T07:06:35.094Z,101984.94
2022-10-18T07:09:51.344Z,101978.63
2022-10-18T07:12:46.619Z,101978.47
2022-10-18T07:16:01.318Z,101989.75
2022-10-18T07:22:46.822Z,102006.88
2022-10-18T07:29:19.480Z,101998.47
2022-10-18T07:32:24.976Z,101995.78
2022-10-18T07:46:50.913Z,102002.78
2022-10-18T07:56:28.886Z,101994.72
2022-10-18T07:58:56.924Z,101999.69
2022-10-18T08:01:25.633Z,101988.81
2022-10-18T08:03:53.902Z,101989.44
2022-10-18T08:06:23.145Z,101987.38
2022-10-18T08:08:51.035Z,101989.56
2022-10-18T08:11:21.304Z,101989.16
2022-10-18T08:13:49.139Z,102006.38
2022-10-18T08:16:22.740Z,102005.00
2022-10-18T08:18:50.806Z,102017.84
2022-10-18T08:21:20.256Z,102009.13
2022-10-18T08:23:48.827Z,102005.72
2022-10-18T08:26:19.009Z,102007.97
2022-10-18T08:28:54.186Z,102021.03
2022-10-18T08:31:31.260Z,102011.00
2022-10-18T08:33:58.753Z,102022.47
2022-10-18T08:36:26.332Z,102018.09
2022-10-18T08:38:53.886Z,102026.75
2022-10-18T08:41:36.245Z,102015.84
2022-10-18T08:44:18.797Z,102024.81
2022-10-18T08:46:49.500Z,102021.31
2022-10-18T08:49:47.269Z,102015.63
2022-10-18T08:52:48.813Z,102009.66
2022-10-18T08:55:25.616Z,102013.31
2022-10-18T08:57:53.406Z,102015.72
2022-10-18T09:00:24.094Z,102007.03
2022-10-18T09:03:13.379Z,101999.91
2022-10-18T09:05:55.333Z,101992.78
2022-10-18T09:08:22.793Z,102006.91
2022-10-18T09:11:10.228Z,102004.22
2022-10-18T09:13:40.360Z,102003.31
2022-10-18T09:16:21.363Z,101996.88
2022-10-18T09:19:03.703Z,101999.25
2022-10-18T09:21:54.122Z,101992.66
2022-10-18T09:24:37.444Z,101995.53
2022-10-18T09:27:26.806Z,101998.09
2022-10-18T09:30:10.196Z,101990.69
2022-10-18T09:32:51.082Z,101992.72
2022-10-18T09:35:24.260Z,101979.06
2022-10-18T09:38:01.015Z,101982.78
2022-10-18T09:40:33.184Z,101975.09
2022-10-18T09:43:08.254Z,101973.91
2022-10-18T09:45:39.995Z,101968.78
2022-10-18T09:48:17.261Z,101973.81
2022-10-18T09:51:02.382Z,101972.63
2022-10-18T09:53:41.215Z,101969.88
2022-10-18T09:56:22.562Z,101967.19
2022-10-18T09:58:51.579Z,101960.66
2022-10-18T10:01:23.111Z,101960.59
2022-10-18T10:03:51.027Z,101944.88
2022-10-18T10:06:18.506Z,101948.63
2022-10-18T10:08:55.056Z,101940.44
2022-10-18T10:11:58.396Z,101934.34
2022-10-18T10:14:28.847Z,101939.63
2022-10-18T10:17:05.852Z,101938.34
2022-10-18T10:19:37.678Z,101933.72
2022-10-18T10:22:14.171Z,101928.06
2022-10-18T10:24:53.312Z,101925.72
2022-10-18T10:27:34.041Z,101925.06
2022-10-18T10:30:07.565Z,101929.34
2022-10-18T10:32:49.478Z,101915.56
2022-10-18T10:35:54.376Z,101912.59
2022-10-18T10:38:29.658Z,101914.53
2022-10-18T10:40:58.356Z,101919.88
2022-10-18T10:43:44.311Z,101909.41
2022-10-18T10:46:20.296Z,101905.19
2022-10-18T10:49:21.648Z,101895.78
2022-10-18T10:52:02.521Z,101905.47
2022-10-18T10:54:50.290Z,101882.81
2022-10-18T10:57:28.306Z,101889.72
2022-10-18T10:59:59.736Z,101884.31
2022-10-18T11:02:36.071Z,101884.69
2022-10-18T11:05:23.205Z,101870.56
2022-10-18T11:07:55.355Z,101864.69
2022-10-18T11:10:31.106Z,101862.34
2022-10-18T11:13:23.739Z,101863.50
2022-10-18T11:16:00.444Z,101852.94
2022-10-18T11:18:34.270Z,101854.53
2022-10-18T11:21:11.605Z,101843.97
2022-10-18T11:23:42.123Z,101841.84
2022-10-18T11:26:12.504Z,101833.44
2022-10-18T11:29:12.273Z,101826.19
2022-10-18T11:31:45.165Z,101829.81
2022-10-18T11:34:46.373Z,101818.97
2022-10-18T11:37:45.207Z,101816.38
2022-10-18T11:40:51.458Z,101815.94
2022-10-18T11:44:04.024Z,101805.75
2022-10-18T11:47:10.343Z,101789.50
2022-10-18T11:49:49.763Z,101792.50
2022-10-18T11:52:34.634Z,101785.53
2022-10-18T11:55:23.004Z,101779.13
2022-10-18T11:58:12.638Z,101770.28
2022-10-18T12:00:50.971Z,101779.75
2022-10-18T12:03:55.749Z,101770.66
2022-10-18T12:06:28.350Z,101764.00
2022-10-18T12:09:02.956Z,101750.34
2022-10-18T12:11:46.913Z,101754.69
2022-10-18T12:14:30.802Z,101756.78
2022-10-18T12:17:35.689Z,101745.00
2022-10-18T12:19:52.306Z,101736.22
2022-10-18T12:22:22.783Z,101741.56
2022-10-18T12:24:50.565Z,101727.50
2022-10-18T12:27:22.718Z,101734.19
2022-10-18T12:30:06.796Z,101717.78
2022-10-18T12:32:36.550Z,101719.81
2022-10-18T12:35:17.032Z,101720.97
2022-10-18T12:38:06.178Z,101718.56
2022-10-18T12:40:41.507Z,101715.38
2022-10-18T12:43:16.832Z,101710.00
2022-10-18T12:46:10.712Z,101712.44
2022-10-18T12:48:45.481Z,101706.03
2022-10-18T12:51:15.400Z,101706.59
2022-10-18T12:53:49.177Z,101698.88
2022-10-18T12:56:28.583Z,101691.75
2022-10-18T12:59:14.348Z,101695.97
2022-10-18T13:01:50.883Z,101693.59
2022-10-18T13:04:27.524Z,101691.03
2022-10-18T13:06:58.162Z,101677.97
2022-10-18T13:09:28.811Z,101688.63
2022-10-18T13:12:18.795Z,101672.50
2022-10-18T13:15:26.346Z,101677.69
2022-10-18T13:18:03.296Z,101674.75
2022-10-18T13:20:44.278Z,101671.50
2022-10-18T13:23:35.362Z,101666.63
2022-10-18T13:26:20.355Z,101677.59
2022-10-18T13:29:20.749Z,101675.50
2022-10-18T13:31:59.583Z,101661.03
2022-10-18T13:34:34.797Z,101660.84
2022-10-18T13:37:11.689Z,101661.56
2022-10-18T13:39:48.584Z,101650.84
2022-10-18T13:43:04.599Z,101657.28
2022-10-18T13:52:27.722Z,101643.78
2022-10-18T13:55:19.693Z,101651.88
2022-10-18T13:57:59.106Z,101654.47
2022-10-18T14:00:32.388Z,101645.19
2022-10-18T14:03:00.260Z,101649.56
2022-10-18T14:06:26.531Z,101648.44
2022-10-18T14:10:09.149Z,101647.38
2022-10-18T14:13:13.169Z,101638.22
2022-10-18T14:16:23.384Z,101641.38
2022-10-18T14:18:57.907Z,101643.25
2022-10-18T14:21:37.703Z,101639.88
2022-10-18T14:24:17.774Z,101646.25
2022-10-18T14:26:45.334Z,101651.53
2022-10-18T14:29:22.216Z,101651.25
2022-10-18T14:32:03.138Z,101635.94
2022-10-18T14:34:37.892Z,101639.06
2022-10-18T14:37:39.477Z,101638.66
2022-10-18T14:40:40.819Z,101641.19
2022-10-18T14:43:16.874Z,101627.19
2022-10-18T14:49:57.860Z,101622.78
2022-10-18T14:52:35.129Z,101625.19
2022-10-18T14:55:16.348Z,101631.75
2022-10-18T14:57:46.461Z,101617.69
2022-10-18T15:00:31.438Z,101617.25
2022-10-18T15:03:13.695Z,101633.50
2022-10-18T15:06:10.468Z,101621.84
2022-10-18T15:08:44.975Z,101617.66
2022-10-18T15:11:20.241Z,101612.41
2022-10-18T15:14:13.884Z,101619.16
2022-10-18T15:16:46.866Z,101609.47
2022-10-18T15:19:14.412Z,101613.50
2022-10-18T15:25:33.020Z,101618.41
2022-10-18T15:28:39.687Z,101607.09
2022-10-18T15:31:33.617Z,101597.41
2022-10-18T15:34:16.587Z,101605.94
2022-10-18T15:36:49.607Z,101598.09
2022-10-18T15:39:21.522Z,101599.47
2022-10-18T15:41:55.399Z,101596.75
2022-10-18T15:44:51.279Z,101601.03
2022-10-18T15:47:21.744Z,101603.03
2022-10-18T15:49:56.260Z,101589.78
2022-10-18T15:52:39.353Z,101595.94
2022-10-18T15:55:31.611Z,101592.72
2022-10-18T15:58:23.028Z,101583.78
2022-10-18T16:00:52.666Z,101579.88
2022-10-18T16:03:24.706Z,101588.28
2022-10-18T16:06:07.948Z,101584.53
2022-10-18T16:08:44.518Z,101586.84
2022-10-18T16:11:14.190Z,101587.00
2022-10-18T16:13:42.682Z,101586.63
2022-10-18T16:16:19.785Z,101575.47
2022-10-18T16:18:47.769Z,101590.34
2022-10-18T16:21:27.665Z,101591.84
2022-10-18T16:23:58.586Z,101586.13
2022-10-18T16:26:27.740Z,101571.97
2022-10-18T16:28:56.234Z,101573.91
2022-10-18T16:31:26.491Z,101584.44
2022-10-18T16:33:55.187Z,101579.22
2022-10-18T16:36:26.241Z,101585.28
2022-10-18T16:38:55.170Z,101577.91
2022-10-18T16:41:23.367Z,101580.41
2022-10-18T16:43:56.285Z,101590.22
2022-10-18T16:46:30.323Z,101593.19
2022-10-18T16:48:58.613Z,101590.22
2022-10-18T16:51:26.346Z,101588.97
2022-10-18T16:53:54.420Z,101608.63
2022-10-18T16:56:23.456Z,101601.72
2022-10-18T16:58:51.710Z,101608.59
2022-10-18T17:01:21.927Z,101605.56
2022-10-18T17:03:52.240Z,101609.97
2022-10-18T17:06:23.676Z,101619.47
2022-10-18T17:08:54.460Z,101618.25
2022-10-18T17:11:27.045Z,101616.50
2022-10-18T17:13:55.424Z,101613.94
2022-10-18T17:18:59.021Z,101625.78
2022-10-18T17:21:27.835Z,101628.22
2022-10-18T17:23:55.931Z,101626.28
2022-10-18T17:26:28.859Z,101621.44
2022-10-18T17:29:00.568Z,101626.06
2022-10-18T17:31:29.747Z,101617.50
2022-10-18T17:34:05.927Z,101618.66
2022-10-18T17:36:34.116Z,101618.69
2022-10-18T17:39:02.172Z,101629.59
2022-10-18T17:41:30.823Z,101634.28
2022-10-18T17:43:58.430Z,101624.38
2022-10-18T17:46:26.117Z,101631.94
2022-10-18T17:48:54.031Z,101628.34
2022-10-18T17:51:22.058Z,101631.38
2022-10-18T17:53:49.607Z,101623.91
2022-10-18T17:56:17.164Z,101611.72
2022-10-18T17:58:45.686Z,101628.63
2022-10-18T18:01:18.694Z,101632.34
2022-10-18T18:03:49.815Z,101637.13
2022-10-18T18:06:20.164Z,101630.34
2022-10-18T18:08:49.003Z,101639.56
2022-10-18T18:11:17.848Z,101628.22
2022-10-18T18:13:47.707Z,101637.94
2022-10-18T18:16:21.793Z,101641.47
2022-10-18T18:18:51.965Z,101644.91
2022-10-18T18:21:20.347Z,101635.81
2022-10-18T18:23:48.817Z,101638.25
2022-10-18T18:26:18.028Z,101643.34
2022-10-18T18:28:45.933Z,101639.38
2022-10-18T18:31:19.639Z,101641.19
2022-10-18T18:33:47.130Z,101639.00
2022-10-18T18:36:14.669Z,101644.25
2022-10-18T18:38:45.322Z,101636.69
2022-10-18T18:41:21.994Z,101646.81
2022-10-18T18:43:58.454Z,101644.34
2022-10-18T18:46:29.066Z,101638.53
2022-10-18T18:48:59.959Z,101644.41
2022-10-18T18:51:28.552Z,101646.44
2022-10-18T18:53:56.085Z,101639.84
2022-10-18T18:56:25.597Z,101636.31
2022-10-18T18:58:54.013Z,101634.03
2022-10-18T19:01:24.115Z,101644.47
2022-10-18T19:03:54.463Z,101629.63
2022-10-18T19:06:34.789Z,101624.47
2022-10-18T19:09:04.874Z,101623.03
2022-10-18T19:11:34.755Z,101627.44
2022-10-18T19:14:03.067Z,101636.09
2022-10-18T19:16:41.433Z,101632.03
2022-10-18T19:19:16.578Z,101633.38
2022-10-18T19:21:53.290Z,101630.91
2022-10-18T19:24:22.825Z,101628.03
2022-10-18T19:26:55.749Z,101627.13
2022-10-18T19:29:29.838Z,101617.41
2022-10-18T19:32:00.752Z,101630.28
2022-10-18T19:34:30.507Z,101624.50
2022-10-18T19:36:58.266Z,101624.72
2022-10-18T19:39:31.349Z,101628.41
2022-10-18T19:42:03.596Z,101628.75
2022-10-18T19:44:33.330Z,101638.50
2022-10-18T19:47:01.568Z,101633.88
2022-10-18T19:49:36.236Z,101643.47
2022-10-18T19:52:06.355Z,101631.75
2022-10-18T19:54:37.174Z,101632.53
2022-10-18T19:57:05.267Z,101624.78
2022-10-18T19:59:33.493Z,101633.50
2022-10-18T20:02:02.172Z,101634.47
2022-10-18T20:04:34.687Z,101645.22
2022-10-18T20:07:03.277Z,101645.06
2022-10-18T20:09:37.483Z,101631.25
2022-10-18T20:12:17.652Z,101639.88
2022-10-18T20:14:45.718Z,101639.78
2022-10-18T20:17:18.531Z,101647.31
2022-10-18T20:19:53.949Z,101633.09
2022-10-18T20:22:35.575Z,101654.41
2022-10-18T20:25:05.225Z,101653.16
2022-10-18T20:27:34.373Z,101640.88
2022-10-18T20:30:14.802Z,101644.38
2022-10-18T20:32:54.279Z,101656.59
2022-10-18T20:35:31.206Z,101648.34
2022-10-18T20:38:01.662Z,101644.38
2022-10-18T20:40:37.885Z,101650.31
2022-10-18T20:43:14.096Z,101642.34
2022-10-18T20:45:45.251Z,101642.25
2022-10-18T20:48:12.900Z,101637.31
2022-10-18T20:50:42.194Z,101640.53
2022-10-18T20:53:09.755Z,101644.41
2022-10-18T20:55:38.969Z,101643.69
2022-10-18T20:58:07.017Z,101643.34
2022-10-18T21:00:35.429Z,101635.66
2022-10-18T21:03:03.795Z,101641.84
2022-10-18T21:05:32.828Z,101630.41
2022-10-18T21:08:01.430Z,101632.75
2022-10-18T21:10:35.427Z,101621.16
2022-10-18T21:13:15.236Z,101635.03
2022-10-18T21:15:56.039Z,101629.13
2022-10-18T21:18:25.657Z,101623.03
2022-10-18T21:20:54.029Z,101627.50
2022-10-18T21:23:22.775Z,101639.94
2022-10-18T21:25:51.328Z,101622.94
2022-10-18T21:28:18.971Z,101625.13
2022-10-18T21:30:46.470Z,101627.84
2022-10-18T21:33:16.667Z,101615.50
2022-10-18T21:35:50.219Z,101618.16
2022-10-18T21:38:18.178Z,101617.88
2022-10-18T21:40:55.992Z,101620.47
2022-10-18T21:48:02.640Z,101612.50
2022-10-18T21:50:30.395Z,101612.31
2022-10-18T21:53:01.657Z,101616.53
2022-10-18T21:55:29.396Z,101606.22
2022-10-18T21:57:57.059Z,101605.31
2022-10-18T22:00:24.713Z,101615.94
2022-10-18T22:03:38.040Z,101608.16
2022-10-18T22:09:31.140Z,101605.47
2022-10-18T22:12:51.895Z,101613.28
2022-10-18T22:15:24.850Z,101595.78
2022-10-18T22:17:57.041Z,101603.47
2022-10-18T22:20:35.286Z,101609.50
2022-10-18T22:23:13.107Z,101591.81
2022-10-18T22:25:40.917Z,101594.25
2022-10-18T22:28:16.420Z,101592.06
2022-10-18T22:30:46.408Z,101587.75
2022-10-18T22:33:19.268Z,101578.09
2022-10-18T22:35:54.412Z,101576.50
2022-10-18T22:38:26.559Z,101582.19
2022-10-18T22:41:05.406Z,101589.94
2022-10-18T22:43:34.635Z,101576.44
2022-10-18T22:46:10.750Z,101579.09
2022-10-18T22:48:41.338Z,101581.47
2022-10-18T22:51:11.954Z,101573.84
2022-10-18T22:53:40.325Z,101572.75
2022-10-18T22:56:11.540Z,101578.16
2022-10-18T22:58:39.223Z,101583.72
2022-10-18T23:01:12.305Z,101577.78
2022-10-18T23:07:18.974Z,101568.22
2022-10-18T23:09:48.489Z,101578.44
2022-10-18T23:12:16.232Z,101562.84
2022-10-18T23:14:44.711Z,101571.66
2022-10-18T23:17:12.584Z,101561.88
2022-10-18T23:19:40.141Z,101568.88
2022-10-18T23:22:07.849Z,101568.09
2022-10-18T23:24:38.547Z,101566.81
2022-10-18T23:30:43.007Z,101563.84
2022-10-18T23:33:13.219Z,101556.91
2022-10-18T23:35:43.530Z,101571.00
2022-10-18T23:38:15.245Z,101560.38
2022-10-18T23:40:42.919Z,101558.53
2022-10-18T23:43:10.580Z,101548.88
2022-10-18T23:45:38.864Z,101562.03
2022-10-18T23:48:07.002Z,101550.97
2022-10-18T23:50:34.573Z,101553.53
2022-10-18T23:53:02.301Z,101552.47
2022-10-18T23:55:32.226Z,101552.50
2022-10-18T23:58:01.957Z,101555.88
